createdAt,value
2022-10-31T00:00:37.642Z,97383.69
2022-10-31T00:01:40.727Z,97386.31
2022-10-31T00:02:42.704Z,97380.88
2022-10-31T00:03:44.608Z,97380.88
2022-10-31T00:04:46.458Z,97381.66
2022-10-31T00:05:49.281Z,97378.44
2022-10-31T00:06:51.290Z,97381.50
2022-10-31T00:07:54.187Z,97374.03
2022-10-31T00:08:57.669Z,97383.72
2022-10-31T00:09:59.594Z,97382.94
2022-10-31T00:11:01.710Z,97380.91
2022-10-31T00:12:03.667Z,97378.28
2022-10-31T00:13:05.548Z,97384.31
2022-10-31T00:14:07.687Z,97379.50
2022-10-31T00:15:09.532Z,97380.31
2022-10-31T00:16:30.401Z,97382.94
2022-10-31T00:17:32.243Z,97382.94
2022-10-31T00:18:34.093Z,97378.28
2022-10-31T00:19:35.855Z,97382.94
2022-10-31T00:20:38.146Z,97378.91
2022-10-31T00:21:39.926Z,97375.31
2022-10-31T00:22:41.672Z,97378.91
2022-10-31T00:23:43.611Z,97382.53
2022-10-31T00:24:45.369Z,97380.91
2022-10-31T00:25:47.103Z,97383.97
2022-10-31T00:26:48.912Z,97382.34
2022-10-31T00:27:50.702Z,97378.53
2022-10-31T00:28:52.770Z,97390.84
2022-10-31T00:29:54.514Z,97380.53
2022-10-31T00:30:59.460Z,97393.84
2022-10-31T00:32:01.244Z,97385.97
2022-10-31T00:33:04.607Z,97390.44
2022-10-31T00:34:06.523Z,97391.47
2022-10-31T00:35:08.474Z,97390.63
2022-10-31T00:36:13.336Z,97391.06
2022-10-31T00:37:15.074Z,97394.66
2022-10-31T00:38:16.934Z,97400.72
2022-10-31T00:39:18.824Z,97396.28
2022-10-31T00:40:20.603Z,97394.47
2022-10-31T00:41:22.362Z,97387.59
2022-10-31T00:42:24.140Z,97395.28
2022-10-31T00:43:26.027Z,97393.69
2022-10-31T00:44:27.879Z,97396.50
2022-10-31T00:45:29.754Z,97391.66
2022-10-31T00:46:31.584Z,97398.91
2022-10-31T00:47:33.377Z,97395.09
2022-10-31T00:48:35.332Z,97395.72
2022-10-31T00:49:37.180Z,97393.28
2022-10-31T00:50:38.995Z,97399.56
2022-10-31T00:51:40.857Z,97393.50
2022-10-31T00:52:42.729Z,97395.31
2022-10-31T00:53:44.585Z,97391.88
2022-10-31T00:54:46.382Z,97390.91
2022-10-31T00:55:48.790Z,97397.56
2022-10-31T00:56:50.897Z,97400.75
2022-10-31T00:57:52.828Z,97406.00
2022-10-31T00:58:54.625Z,97395.53
2022-10-31T00:59:56.449Z,97397.16
2022-10-31T01:00:58.475Z,97403.97
2022-10-31T01:02:02.567Z,97399.75
2022-10-31T01:03:04.487Z,97398.75
2022-10-31T01:04:06.398Z,97398.75
2022-10-31T01:05:08.613Z,97398.13
2022-10-31T01:06:11.964Z,97396.13
2022-10-31T01:07:15.238Z,97393.13
2022-10-31T01:08:17.072Z,97392.50
2022-10-31T01:09:19.023Z,97396.75
2022-10-31T01:10:20.910Z,97400.97
2022-10-31T01:11:23.452Z,97394.94
2022-10-31T01:12:25.339Z,97396.75
2022-10-31T01:13:27.209Z,97395.13
2022-10-31T01:14:29.122Z,97386.69
2022-10-31T01:15:31.023Z,97392.09
2022-10-31T01:16:32.800Z,97395.75
2022-10-31T01:17:34.702Z,97401.59
2022-10-31T01:18:36.666Z,97399.38
2022-10-31T01:19:38.486Z,97398.78
2022-10-31T01:20:40.447Z,97395.34
2022-10-31T01:21:42.294Z,97398.78
2022-10-31T01:22:44.087Z,97384.88
2022-10-31T01:23:46.081Z,97398.78
2022-10-31T01:24:47.883Z,97391.09
2022-10-31T01:25:49.793Z,97396.75
2022-10-31T01:26:51.563Z,97390.50
2022-10-31T01:27:53.414Z,97393.13
2022-10-31T01:28:56.478Z,97388.72
2022-10-31T01:29:58.334Z,97400.78
2022-10-31T01:31:04.221Z,97391.09
2022-10-31T01:32:06.113Z,97395.13
2022-10-31T01:33:07.906Z,97397.97
2022-10-31T01:34:13.757Z,97387.28
2022-10-31T01:35:15.576Z,97391.94
2022-10-31T01:36:17.395Z,97391.31
2022-10-31T01:37:19.197Z,97387.09
2022-10-31T01:38:21.016Z,97390.72
2022-10-31T01:39:22.871Z,97389.94
2022-10-31T01:40:24.644Z,97390.72
2022-10-31T01:41:28.298Z,97393.16
2022-10-31T01:42:30.130Z,97389.09
2022-10-31T01:43:43.998Z,97390.31
2022-10-31T01:44:51.845Z,97387.88
2022-10-31T01:45:55.222Z,97394.75
2022-10-31T01:47:01.694Z,97389.50
2022-10-31T01:48:03.562Z,97386.91
2022-10-31T01:49:06.858Z,97392.13
2022-10-31T01:50:14.243Z,97391.34
2022-10-31T01:51:17.696Z,97384.28
2022-10-31T01:52:32.255Z,97384.28
2022-10-31T01:53:34.926Z,97386.28
2022-10-31T01:54:39.275Z,97379.44
2022-10-31T01:55:42.738Z,97385.50
2022-10-31T01:56:46.256Z,97388.91
2022-10-31T01:57:49.678Z,97389.72
2022-10-31T01:58:52.282Z,97387.88
2022-10-31T01:59:59.110Z,97386.47
2022-10-31T02:01:06.691Z,97389.28
2022-10-31T02:02:10.238Z,97393.91
2022-10-31T02:03:12.791Z,97389.28
2022-10-31T02:04:15.285Z,97395.31
2022-10-31T02:05:19.025Z,97388.69
2022-10-31T02:06:41.098Z,97387.28
2022-10-31T02:07:53.222Z,97390.69
2022-10-31T02:08:56.045Z,97390.91
2022-10-31T02:09:58.368Z,97387.47
2022-10-31T02:11:01.992Z,97386.69
2022-10-31T02:12:04.104Z,97379.63
2022-10-31T02:13:07.242Z,97389.91
2022-10-31T02:14:09.202Z,97390.69
2022-10-31T02:15:11.519Z,97387.28
2022-10-31T02:16:13.283Z,97386.28
2022-10-31T02:17:15.593Z,97387.28
2022-10-31T02:18:18.176Z,97381.44
2022-10-31T02:19:26.890Z,97390.28
2022-10-31T02:20:33.835Z,97387.25
2022-10-31T02:21:38.517Z,97383.84
2022-10-31T02:22:59.059Z,97384.66
2022-10-31T02:24:06.893Z,97388.09
2022-10-31T02:25:27.337Z,97387.47
2022-10-31T02:26:39.685Z,97389.06
2022-10-31T02:27:41.450Z,97383.84
2022-10-31T02:28:46.044Z,97383.84
2022-10-31T02:30:06.680Z,97391.88
2022-10-31T02:31:23.751Z,97386.88
2022-10-31T02:32:33.551Z,97382.63
2022-10-31T02:33:41.557Z,97384.84
2022-10-31T02:34:52.648Z,97383.44
2022-10-31T02:36:03.443Z,97385.06
2022-10-31T02:37:14.284Z,97381.41
2022-10-31T02:38:22.093Z,97384.03
2022-10-31T02:39:26.286Z,97395.53
2022-10-31T02:40:31.339Z,97385.84
2022-10-31T02:41:45.897Z,97385.84
2022-10-31T02:42:56.970Z,97393.50
2022-10-31T02:44:02.383Z,97389.06
2022-10-31T02:45:04.184Z,97381.63
2022-10-31T02:46:15.951Z,97387.88
2022-10-31T02:47:24.782Z,97386.25
2022-10-31T02:48:29.320Z,97382.22
2022-10-31T02:49:35.304Z,97391.69
2022-10-31T02:50:39.860Z,97391.88
2022-10-31T02:51:41.653Z,97390.06
2022-10-31T02:52:43.563Z,97389.25
2022-10-31T02:53:45.401Z,97389.06
2022-10-31T02:54:47.962Z,97386.25
2022-10-31T02:56:09.921Z,97392.28
2022-10-31T02:57:11.886Z,97393.88
2022-10-31T02:58:15.905Z,97389.06
2022-10-31T02:59:18.271Z,97393.69
2022-10-31T03:00:20.237Z,97389.25
2022-10-31T03:01:25.322Z,97395.28
2022-10-31T03:02:34.868Z,97398.72
2022-10-31T03:03:54.829Z,97391.69
2022-10-31T03:05:13.251Z,97389.88
2022-10-31T03:06:47.559Z,97394.31
2022-10-31T03:08:07.759Z,97397.53
2022-10-31T03:09:15.541Z,97395.72
2022-10-31T03:10:35.549Z,97387.06
2022-10-31T03:11:45.747Z,97395.91
2022-10-31T03:13:07.801Z,97400.34
2022-10-31T03:14:15.151Z,97397.91
2022-10-31T03:15:25.015Z,97396.69
2022-10-31T03:16:47.798Z,97399.50
2022-10-31T03:17:55.149Z,97394.09
2022-10-31T03:19:02.636Z,97410.38
2022-10-31T03:20:05.644Z,97399.13
2022-10-31T03:21:11.338Z,97399.13
2022-10-31T03:22:27.276Z,97403.56
2022-10-31T03:23:29.765Z,97400.31
2022-10-31T03:24:37.032Z,97399.72
2022-10-31T03:25:40.714Z,97409.53
2022-10-31T03:26:48.798Z,97405.31
2022-10-31T03:27:52.751Z,97400.88
2022-10-31T03:28:57.379Z,97406.09
2022-10-31T03:30:01.935Z,97406.75
2022-10-31T03:31:07.174Z,97409.72
2022-10-31T03:32:18.776Z,97413.34
2022-10-31T03:33:25.948Z,97404.69
2022-10-31T03:34:28.114Z,97410.09
2022-10-31T03:35:30.200Z,97401.28
2022-10-31T03:36:34.419Z,97412.53
2022-10-31T03:37:37.467Z,97410.53
2022-10-31T03:38:40.382Z,97409.91
2022-10-31T03:39:43.761Z,97406.31
2022-10-31T03:40:47.875Z,97406.31
2022-10-31T03:41:58.635Z,97409.72
2022-10-31T03:43:03.715Z,97412.34
2022-10-31T03:44:09.779Z,97415.16
2022-10-31T03:45:17.200Z,97410.31
2022-10-31T03:46:19.310Z,97410.31
2022-10-31T03:47:21.139Z,97414.72
2022-10-31T03:48:23.875Z,97415.94
2022-10-31T03:49:25.934Z,97413.31
2022-10-31T03:50:32.158Z,97411.50
2022-10-31T03:51:38.413Z,97409.91
2022-10-31T03:52:40.159Z,97407.06
2022-10-31T03:53:58.035Z,97409.09
2022-10-31T03:55:08.989Z,97411.50
2022-10-31T03:56:33.892Z,97415.53
2022-10-31T03:57:38.790Z,97409.50
2022-10-31T03:58:50.209Z,97409.50
2022-10-31T03:59:54.680Z,97410.28
2022-10-31T04:00:58.256Z,97414.53
2022-10-31T04:02:03.575Z,97413.50
2022-10-31T04:03:16.079Z,97407.50
2022-10-31T04:04:18.220Z,97417.94
2022-10-31T04:05:21.360Z,97414.72
2022-10-31T04:06:24.095Z,97409.06
2022-10-31T04:07:28.953Z,97412.47
2022-10-31T04:08:32.134Z,97414.31
2022-10-31T04:09:36.883Z,97413.69
2022-10-31T04:10:40.096Z,97412.69
2022-10-31T04:11:43.911Z,97411.06
2022-10-31T04:12:48.835Z,97412.88
2022-10-31T04:13:51.559Z,97407.25
2022-10-31T04:14:54.440Z,97411.66
2022-10-31T04:15:57.350Z,97411.66
2022-10-31T04:16:59.139Z,97411.47
2022-10-31T04:18:02.444Z,97414.28
2022-10-31T04:19:05.495Z,97413.28
2022-10-31T04:20:07.816Z,97408.25
2022-10-31T04:21:09.840Z,97417.88
2022-10-31T04:22:11.700Z,97412.66
2022-10-31T04:23:20.728Z,97410.88
2022-10-31T04:24:22.531Z,97422.13
2022-10-31T04:25:24.394Z,97415.88
2022-10-31T04:26:26.649Z,97421.94
2022-10-31T04:27:28.493Z,97419.50
2022-10-31T04:28:30.317Z,97421.31
2022-10-31T04:29:32.289Z,97418.28
2022-10-31T04:30:34.219Z,97416.47
2022-10-31T04:31:36.224Z,97419.88
2022-10-31T04:32:37.997Z,97418.28
2022-10-31T04:33:39.834Z,97420.47
2022-10-31T04:34:41.635Z,97413.66
2022-10-31T04:35:43.491Z,97417.06
2022-10-31T04:36:45.440Z,97416.28
2022-10-31T04:37:47.344Z,97416.47
2022-10-31T04:38:49.174Z,97417.44
2022-10-31T04:39:51.107Z,97420.06
2022-10-31T04:40:53.667Z,97415.84
2022-10-31T04:41:55.608Z,97423.88
2022-10-31T04:42:57.628Z,97421.44
2022-10-31T04:43:59.594Z,97424.88
2022-10-31T04:45:01.377Z,97422.28
2022-10-31T04:46:03.443Z,97421.44
2022-10-31T04:47:05.457Z,97422.47
2022-10-31T04:48:07.359Z,97431.47
2022-10-31T04:49:09.111Z,97421.25
2022-10-31T04:50:11.052Z,97429.09
2022-10-31T04:51:12.861Z,97428.88
2022-10-31T04:52:14.830Z,97430.69
2022-10-31T04:53:16.680Z,97429.09
2022-10-31T04:54:18.559Z,97419.00
2022-10-31T04:55:20.398Z,97431.44
2022-10-31T04:56:22.209Z,97429.84
2022-10-31T04:57:24.088Z,97425.44
2022-10-31T04:58:25.891Z,97430.66
2022-10-31T04:59:27.740Z,97436.06
2022-10-31T05:00:29.840Z,97431.03
2022-10-31T05:01:31.901Z,97432.66
2022-10-31T05:02:33.805Z,97431.84
2022-10-31T05:03:35.777Z,97429.84
2022-10-31T05:04:37.619Z,97434.06
2022-10-31T05:05:39.551Z,97432.06
2022-10-31T05:06:41.388Z,97429.44
2022-10-31T05:07:44.202Z,97433.88
2022-10-31T05:08:46.057Z,97436.06
2022-10-31T05:09:47.912Z,97439.09
2022-10-31T05:10:49.730Z,97442.69
2022-10-31T05:11:51.531Z,97445.28
2022-10-31T05:12:54.519Z,97441.88
2022-10-31T05:13:56.388Z,97437.03
2022-10-31T05:14:58.193Z,97440.47
2022-10-31T05:16:00.011Z,97441.09
2022-10-31T05:17:01.809Z,97435.84
2022-10-31T05:18:04.271Z,97442.06
2022-10-31T05:19:06.735Z,97441.09
2022-10-31T05:20:08.730Z,97442.66
2022-10-31T05:21:10.743Z,97441.25
2022-10-31T05:22:12.538Z,97431.78
2022-10-31T05:23:14.507Z,97434.19
2022-10-31T05:24:16.408Z,97435.63
2022-10-31T05:25:19.239Z,97440.03
2022-10-31T05:26:21.023Z,97435.63
2022-10-31T05:27:22.992Z,97428.56
2022-10-31T05:28:24.832Z,97438.84
2022-10-31T05:29:26.655Z,97436.22
2022-10-31T05:30:30.170Z,97436.22
2022-10-31T05:31:31.991Z,97437.59
2022-10-31T05:32:47.268Z,97439.59
2022-10-31T05:33:49.164Z,97433.41
2022-10-31T05:34:51.031Z,97428.38
2022-10-31T05:35:52.895Z,97432.56
2022-10-31T05:36:54.771Z,97441.25
2022-10-31T05:37:56.873Z,97441.25
2022-10-31T05:38:58.768Z,97442.63
2022-10-31T05:40:05.292Z,97432.53
2022-10-31T05:41:11.061Z,97441.34
2022-10-31T05:42:12.883Z,97438.56
2022-10-31T05:43:14.937Z,97442.19
2022-10-31T05:44:16.739Z,97436.53
2022-10-31T05:45:19.396Z,97440.97
2022-10-31T05:46:21.362Z,97443.13
2022-10-31T05:47:23.161Z,97442.53
2022-10-31T05:48:25.012Z,97436.50
2022-10-31T05:49:26.833Z,97439.91
2022-10-31T05:50:30.108Z,97443.13
2022-10-31T05:51:31.972Z,97451.59
2022-10-31T05:52:34.402Z,97446.19
2022-10-31T05:53:36.188Z,97450.56
2022-10-31T05:54:37.998Z,97450.56
2022-10-31T05:55:41.875Z,97448.78
2022-10-31T05:56:43.681Z,97452.22
2022-10-31T05:57:45.498Z,97439.16
2022-10-31T05:58:47.342Z,97445.34
2022-10-31T05:59:53.952Z,97450.56
2022-10-31T06:00:56.894Z,97446.94
2022-10-31T06:01:58.799Z,97446.94
2022-10-31T06:03:01.218Z,97444.13
2022-10-31T06:04:03.501Z,97450.19
2022-10-31T06:05:05.603Z,97447.34
2022-10-31T06:06:07.588Z,97449.78
2022-10-31T06:07:09.339Z,97449.78
2022-10-31T06:08:11.294Z,97449.41
2022-10-31T06:09:13.154Z,97450.22
2022-10-31T06:10:15.165Z,97450.81
2022-10-31T06:11:17.066Z,97449.19
2022-10-31T06:12:18.887Z,97449.41
2022-10-31T06:13:20.687Z,97452.22
2022-10-31T06:14:22.546Z,97454.56
2022-10-31T06:15:24.943Z,97460.19
2022-10-31T06:16:26.958Z,97454.16
2022-10-31T06:17:28.796Z,97455.16
2022-10-31T06:18:30.720Z,97452.09
2022-10-31T06:19:32.510Z,97458.16
2022-10-31T06:20:34.793Z,97459.75
2022-10-31T06:21:36.706Z,97458.34
2022-10-31T06:22:38.598Z,97461.94
2022-10-31T06:23:40.475Z,97463.38
2022-10-31T06:24:42.267Z,97464.00
2022-10-31T06:25:44.148Z,97457.94
2022-10-31T06:26:45.940Z,97456.16
2022-10-31T06:27:47.938Z,97463.78
2022-10-31T06:28:49.957Z,97465.16
2022-10-31T06:29:51.973Z,97464.53
2022-10-31T06:30:53.792Z,97458.34
2022-10-31T06:31:55.638Z,97466.78
2022-10-31T06:33:03.049Z,97464.00
2022-10-31T06:34:04.990Z,97459.41
2022-10-31T06:35:07.001Z,97467.00
2022-10-31T06:36:09.054Z,97471.88
2022-10-31T06:37:11.892Z,97469.25
2022-10-31T06:38:13.992Z,97464.84
2022-10-31T06:39:16.039Z,97463.03
2022-10-31T06:40:17.850Z,97466.47
2022-10-31T06:41:19.712Z,97467.44
2022-10-31T06:42:21.555Z,97469.25
2022-10-31T06:43:23.343Z,97466.66
2022-10-31T06:44:25.234Z,97468.25
2022-10-31T06:45:27.460Z,97466.47
2022-10-31T06:46:29.277Z,97463.84
2022-10-31T06:47:31.156Z,97470.84
2022-10-31T06:48:33.513Z,97473.28
2022-10-31T06:49:35.337Z,97473.09
2022-10-31T06:50:37.133Z,97470.50
2022-10-31T06:51:39.024Z,97476.28
2022-10-31T06:52:40.750Z,97473.69
2022-10-31T06:53:42.628Z,97472.66
2022-10-31T06:54:44.444Z,97474.09
2022-10-31T06:55:46.225Z,97472.31
2022-10-31T06:56:48.709Z,97478.50
2022-10-31T06:57:52.089Z,97470.06
2022-10-31T06:58:53.983Z,97470.69
2022-10-31T06:59:55.834Z,97470.69
2022-10-31T07:00:59.995Z,97475.91
2022-10-31T07:02:02.060Z,97472.09
2022-10-31T07:03:05.898Z,97483.53
2022-10-31T07:04:08.803Z,97479.91
2022-10-31T07:05:10.626Z,97474.50
2022-10-31T07:06:12.491Z,97473.09
2022-10-31T07:07:14.237Z,97478.31
2022-10-31T07:08:16.339Z,97477.88
2022-10-31T07:09:18.243Z,97470.63
2022-10-31T07:10:20.101Z,97474.66
2022-10-31T07:11:21.954Z,97473.88
2022-10-31T07:12:23.789Z,97473.88
2022-10-31T07:13:28.240Z,97470.06
2022-10-31T07:14:30.169Z,97477.72
2022-10-31T07:15:34.574Z,97473.91
2022-10-31T07:16:36.384Z,97478.31
2022-10-31T07:17:38.228Z,97471.28
2022-10-31T07:18:40.249Z,97472.69
2022-10-31T07:19:42.209Z,97472.53
2022-10-31T07:20:44.027Z,97480.16
2022-10-31T07:21:45.871Z,97475.75
2022-10-31T07:22:50.562Z,97472.34
2022-10-31T07:23:52.544Z,97468.50
2022-10-31T07:24:54.353Z,97468.69
2022-10-31T07:25:59.744Z,97469.28
2022-10-31T07:27:01.581Z,97472.69
2022-10-31T07:28:03.631Z,97466.31
2022-10-31T07:29:05.635Z,97468.75
2022-10-31T07:30:08.280Z,97465.50
2022-10-31T07:31:10.096Z,97463.09
2022-10-31T07:32:11.889Z,97476.94
2022-10-31T07:33:13.685Z,97466.31
2022-10-31T07:34:15.490Z,97469.53
2022-10-31T07:35:24.467Z,97471.13
2022-10-31T07:36:26.327Z,97477.59
2022-10-31T07:37:28.651Z,97470.19
2022-10-31T07:38:30.437Z,97470.81
2022-10-31T07:39:32.219Z,97471.59
2022-10-31T07:40:34.094Z,97474.63
2022-10-31T07:41:35.935Z,97472.19
2022-10-31T07:42:38.354Z,97476.44
2022-10-31T07:43:40.187Z,97469.19
2022-10-31T07:44:41.982Z,97470.44
2022-10-31T07:45:43.786Z,97470.03
2022-10-31T07:46:45.577Z,97475.25
2022-10-31T07:47:50.519Z,97476.06
2022-10-31T07:48:52.265Z,97475.69
2022-10-31T07:49:54.114Z,97477.09
2022-10-31T07:50:56.552Z,97469.50
2022-10-31T07:51:58.373Z,97469.72
2022-10-31T07:53:04.260Z,97461.94
2022-10-31T07:54:06.100Z,97454.09
2022-10-31T07:55:08.725Z,97463.78
2022-10-31T07:56:10.617Z,97463.00
2022-10-31T07:57:12.473Z,97463.00
2022-10-31T07:58:15.463Z,97456.22
2022-10-31T07:59:17.231Z,97455.44
2022-10-31T08:00:19.067Z,97459.47
2022-10-31T08:01:21.028Z,97455.25
2022-10-31T08:02:23.075Z,97462.31
2022-10-31T08:03:24.918Z,97462.34
2022-10-31T08:04:26.673Z,97459.75
2022-10-31T08:05:28.815Z,97453.13
2022-10-31T08:06:30.614Z,97461.38
2022-10-31T08:08:43.578Z,97454.75
2022-10-31T08:09:45.472Z,97458.38
2022-10-31T08:10:47.326Z,97450.53
2022-10-31T08:11:49.193Z,97453.56
2022-10-31T08:13:00.823Z,97455.56
2022-10-31T08:14:02.717Z,97447.09
2022-10-31T08:15:04.651Z,97445.69
2022-10-31T08:16:08.785Z,97445.28
2022-10-31T08:17:10.680Z,97451.75
2022-10-31T08:18:15.823Z,97452.75
2022-10-31T08:19:17.669Z,97440.25
2022-10-31T08:20:19.694Z,97447.09
2022-10-31T08:21:21.468Z,97442.25
2022-10-31T08:22:23.361Z,97442.66
2022-10-31T08:23:25.381Z,97444.47
2022-10-31T08:24:27.279Z,97436.78
2022-10-31T08:25:33.713Z,97437.19
2022-10-31T08:26:39.225Z,97442.22
2022-10-31T08:27:41.108Z,97438.38
2022-10-31T08:28:42.892Z,97428.50
2022-10-31T08:29:44.719Z,97435.78
2022-10-31T08:30:47.758Z,97436.16
2022-10-31T08:31:49.600Z,97436.38
2022-10-31T08:33:23.927Z,97436.19
2022-10-31T08:34:25.982Z,97428.09
2022-10-31T08:35:27.739Z,97429.06
2022-10-31T08:36:30.784Z,97434.94
2022-10-31T08:37:32.511Z,97435.53
2022-10-31T08:38:34.354Z,97421.19
2022-10-31T08:39:36.132Z,97427.44
2022-10-31T08:40:38.350Z,97420.53
2022-10-31T08:41:40.186Z,97426.97
2022-10-31T08:42:41.951Z,97424.75
2022-10-31T08:43:43.860Z,97420.09
2022-10-31T08:44:45.781Z,97422.06
2022-10-31T08:45:49.660Z,97420.25
2022-10-31T08:46:51.438Z,97419.41
2022-10-31T08:47:53.341Z,97424.25
2022-10-31T08:48:55.312Z,97411.72
2022-10-31T08:49:57.157Z,97414.09
2022-10-31T08:50:59.946Z,97418.75
2022-10-31T08:52:01.757Z,97409.00
2022-10-31T08:53:06.160Z,97402.31
2022-10-31T08:54:08.220Z,97406.13
2022-10-31T08:55:10.296Z,97407.69
2022-10-31T08:56:12.199Z,97409.25
2022-10-31T08:57:14.086Z,97404.38
2022-10-31T08:58:20.399Z,97399.28
2022-10-31T08:59:22.355Z,97405.13
2022-10-31T09:00:24.235Z,97400.63
2022-10-31T09:01:26.165Z,97400.00
2022-10-31T09:02:28.193Z,97400.78
2022-10-31T09:03:31.883Z,97399.91
2022-10-31T09:04:33.849Z,97396.25
2022-10-31T09:05:35.760Z,97403.47
2022-10-31T09:06:38.166Z,97398.41
2022-10-31T09:07:40.078Z,97393.66
2022-10-31T09:08:41.880Z,97390.63
2022-10-31T09:09:43.684Z,97392.59
2022-10-31T09:10:46.266Z,97387.69
2022-10-31T09:11:48.015Z,97387.25
2022-10-31T09:12:55.669Z,97382.75
2022-10-31T09:13:57.418Z,97384.50
2022-10-31T09:14:59.252Z,97389.47
2022-10-31T09:16:01.181Z,97381.50
2022-10-31T09:17:02.981Z,97378.56
2022-10-31T09:18:05.140Z,97374.84
2022-10-31T09:19:11.277Z,97373.16
2022-10-31T09:20:13.739Z,97370.44
2022-10-31T09:21:15.677Z,97369.78
2022-10-31T09:22:17.437Z,97371.53
2022-10-31T09:23:22.447Z,97378.56
2022-10-31T09:24:24.371Z,97368.16
2022-10-31T09:25:26.246Z,97370.94
2022-10-31T09:26:28.241Z,97372.66
2022-10-31T09:27:30.102Z,97371.41
2022-10-31T09:28:33.104Z,97369.25
2022-10-31T09:29:34.934Z,97364.47
2022-10-31T09:30:37.109Z,97365.16
2022-10-31T09:31:44.542Z,97367.72
2022-10-31T09:32:46.933Z,97363.69
2022-10-31T09:33:48.756Z,97367.47
2022-10-31T09:34:50.616Z,97364.41
2022-10-31T09:35:52.394Z,97366.94
2022-10-31T09:36:54.398Z,97367.63
2022-10-31T09:38:03.760Z,97363.50
2022-10-31T09:39:05.968Z,97356.75
2022-10-31T09:40:07.889Z,97354.78
2022-10-31T09:41:28.430Z,97361.78
2022-10-31T09:42:48.798Z,97358.59
2022-10-31T09:43:50.804Z,97350.34
2022-10-31T09:45:03.940Z,97358.69
2022-10-31T09:46:08.710Z,97349.88
2022-10-31T09:47:19.218Z,97351.56
2022-10-31T09:48:33.516Z,97352.16
2022-10-31T09:49:41.325Z,97353.84
2022-10-31T09:50:57.729Z,97345.00
2022-10-31T09:52:02.974Z,97352.19
2022-10-31T09:53:09.912Z,97343.81
2022-10-31T09:54:11.801Z,97347.34
2022-10-31T09:55:19.468Z,97343.78
2022-10-31T09:56:22.909Z,97343.78
2022-10-31T09:57:35.228Z,97345.72
2022-10-31T09:58:40.705Z,97340.53
2022-10-31T09:59:44.853Z,97342.00
2022-10-31T10:00:48.206Z,97343.13
2022-10-31T10:01:52.930Z,97339.53
2022-10-31T10:03:01.130Z,97337.09
2022-10-31T10:04:06.353Z,97340.72
2022-10-31T10:05:12.879Z,97338.50
2022-10-31T10:06:22.860Z,97340.41
2022-10-31T10:07:24.663Z,97338.09
2022-10-31T10:08:28.550Z,97328.31
2022-10-31T10:09:30.576Z,97332.41
2022-10-31T10:10:32.318Z,97329.59
2022-10-31T10:11:49.069Z,97331.50
2022-10-31T10:12:50.901Z,97325.44
2022-10-31T10:13:55.764Z,97322.09
2022-10-31T10:15:10.993Z,97325.84
2022-10-31T10:16:12.808Z,97329.63
2022-10-31T10:17:14.530Z,97326.56
2022-10-31T10:18:34.148Z,97320.31
2022-10-31T10:19:54.558Z,97320.34
2022-10-31T10:21:05.524Z,97321.09
2022-10-31T10:22:42.788Z,97317.22
2022-10-31T10:23:54.331Z,97312.25
2022-10-31T10:25:00.914Z,97310.16
2022-10-31T10:26:10.170Z,97306.44
2022-10-31T10:27:12.961Z,97305.75
2022-10-31T10:28:17.774Z,97304.44
2022-10-31T10:29:34.539Z,97301.88
2022-10-31T10:30:39.503Z,97307.75
2022-10-31T10:31:43.685Z,97294.06
2022-10-31T10:32:51.026Z,97304.19
2022-10-31T10:34:12.559Z,97296.28
2022-10-31T10:35:29.243Z,97296.38
2022-10-31T10:36:35.915Z,97294.63
2022-10-31T10:37:40.607Z,97295.47
2022-10-31T10:38:51.731Z,97285.44
2022-10-31T10:40:01.520Z,97294.78
2022-10-31T10:41:05.921Z,97284.47
2022-10-31T10:42:33.271Z,97288.50
2022-10-31T10:43:36.283Z,97281.97
2022-10-31T10:45:10.610Z,97291.50
2022-10-31T10:46:31.154Z,97273.75
2022-10-31T10:47:40.329Z,97279.91
2022-10-31T10:48:57.212Z,97279.41
2022-10-31T10:49:59.933Z,97276.00
2022-10-31T10:51:02.919Z,97272.59
2022-10-31T10:54:06.602Z,97273.72
2022-10-31T10:55:12.307Z,97266.66
2022-10-31T10:56:27.244Z,97271.72
2022-10-31T10:57:42.942Z,97273.88
2022-10-31T10:58:46.901Z,97258.50
2022-10-31T10:59:49.053Z,97267.56
2022-10-31T11:00:52.602Z,97262.25
2022-10-31T11:01:54.568Z,97254.34
2022-10-31T11:02:57.074Z,97255.16
2022-10-31T11:03:58.979Z,97260.25
2022-10-31T11:05:02.084Z,97256.53
2022-10-31T11:06:03.987Z,97259.19
2022-10-31T11:07:10.319Z,97253.91
2022-10-31T11:08:12.517Z,97247.06
2022-10-31T11:09:17.045Z,97242.31
2022-10-31T11:10:19.214Z,97241.78
2022-10-31T11:11:24.615Z,97243.38
2022-10-31T11:12:29.800Z,97243.69
2022-10-31T11:13:32.910Z,97244.47
2022-10-31T11:14:37.445Z,97242.34
2022-10-31T11:15:50.557Z,97238.63
2022-10-31T11:16:57.231Z,97239.75
2022-10-31T11:17:59.085Z,97233.13
2022-10-31T11:19:30.118Z,97230.22
2022-10-31T11:20:37.297Z,97226.25
2022-10-31T11:21:39.340Z,97227.09
2022-10-31T11:22:42.738Z,97223.63
2022-10-31T11:23:44.569Z,97226.28
2022-10-31T11:24:46.589Z,97218.88
2022-10-31T11:25:51.974Z,97221.28
2022-10-31T11:27:04.213Z,97224.19
2022-10-31T11:28:10.258Z,97218.63
2022-10-31T11:29:22.548Z,97216.75
2022-10-31T11:30:24.372Z,97218.63
2022-10-31T11:31:26.833Z,97219.72
2022-10-31T11:32:28.773Z,97207.47
2022-10-31T11:33:33.443Z,97211.22
2022-10-31T11:34:43.556Z,97208.03
2022-10-31T11:35:45.703Z,97212.28
2022-10-31T11:36:47.587Z,97207.25
2022-10-31T11:37:50.987Z,97203.25
2022-10-31T11:38:53.762Z,97209.38
2022-10-31T11:39:57.348Z,97201.44
2022-10-31T11:41:01.184Z,97205.97
2022-10-31T11:42:08.743Z,97199.59
2022-10-31T11:43:17.002Z,97201.22
2022-10-31T11:44:21.889Z,97202.50
2022-10-31T11:45:23.773Z,97189.50
2022-10-31T11:46:28.613Z,97188.69
2022-10-31T11:47:31.096Z,97196.41
2022-10-31T11:48:33.049Z,97189.50
2022-10-31T11:49:45.018Z,97191.09
2022-10-31T11:50:57.139Z,97185.78
2022-10-31T11:52:00.948Z,97187.38
2022-10-31T11:53:03.355Z,97182.06
2022-10-31T11:54:05.732Z,97184.72
2022-10-31T11:55:13.817Z,97182.06
2022-10-31T11:56:16.567Z,97179.41
2022-10-31T11:57:26.313Z,97178.88
2022-10-31T11:58:28.315Z,97180.75
2022-10-31T11:59:31.302Z,97181.53
2022-10-31T12:00:35.632Z,97173.56
2022-10-31T12:01:44.182Z,97178.88
2022-10-31T12:02:47.210Z,97176.22
2022-10-31T12:04:07.186Z,97172.78
2022-10-31T12:05:19.274Z,97169.88
2022-10-31T12:06:24.966Z,97174.34
2022-10-31T12:07:26.885Z,97173.31
2022-10-31T12:08:31.886Z,97171.97
2022-10-31T12:09:38.111Z,97174.63
2022-10-31T12:10:55.766Z,97161.06
2022-10-31T12:12:16.202Z,97161.59
2022-10-31T12:13:30.214Z,97154.69
2022-10-31T12:14:33.187Z,97156.03
2022-10-31T12:15:37.807Z,97150.72
2022-10-31T12:16:53.534Z,97155.50
2022-10-31T12:18:02.986Z,97152.56
2022-10-31T12:19:04.745Z,97149.13
2022-10-31T12:20:10.645Z,97151.25
2022-10-31T12:21:35.504Z,97138.75
2022-10-31T12:22:49.538Z,97138.75
2022-10-31T12:24:07.220Z,97142.19
2022-10-31T12:25:09.027Z,97138.75
2022-10-31T12:26:11.992Z,97142.19
2022-10-31T12:27:32.581Z,97142.44
2022-10-31T12:28:55.445Z,97141.66
2022-10-31T12:30:23.734Z,97132.63
2022-10-31T12:31:26.728Z,97129.44
2022-10-31T12:32:34.713Z,97127.03
2022-10-31T12:33:45.387Z,97131.03
2022-10-31T12:34:49.262Z,97121.72
2022-10-31T12:36:12.626Z,97132.06
2022-10-31T12:37:32.379Z,97122.78
2022-10-31T12:38:37.122Z,97120.34
2022-10-31T12:39:45.505Z,97116.13
2022-10-31T12:41:02.657Z,97115.56
2022-10-31T12:42:17.718Z,97118.22
2022-10-31T12:43:32.153Z,97118.78